RYR622 EGSS-LEMH
Flight info
| Callsign | RYR622 |
|---|---|
| Flight time | 2h 4m |
| Altitude | 34000 |
| Route | NUGBO M183 SILVA Q41 COWLY UT71 VAPID UN859 SOPIL DCT BALAN DCT EVPOK DCT NARAK DCT GAI DCT LOMRA DCT ROCAN DCT GEANT N727 SARGO |
| Aircraft | B736/M-SDE2E3FGHIRWXY/LB1 |
Departure
| Time | 2026-05-04 02:49 |
|---|---|
| Airport | London Stansted Airport (EGSS) |
Arrival
| Time | 2026-05-04 04:53 |
|---|---|
| Airport | Menorca Airport (LEMH) |
| Time | Latitude | Longitude | Altitude | Speed | Heading |
|---|---|---|---|---|---|
| 2026-05-04 02:24 | 51.88950 | 0.25222 | 343 ft | 0 kts | 43° |
| 2026-05-04 02:35 | 51.88947 | 0.25218 | 343 ft | 2 kts | 42° |
| 2026-05-04 02:35 | 51.88935 | 0.25200 | 356 ft | 2 kts | 43° |
| 2026-05-04 02:36 | 51.88934 | 0.25199 | 356 ft | 0 kts | 43° |
| 2026-05-04 02:36 | 51.88925 | 0.25185 | 350 ft | 2 kts | 42° |
| 2026-05-04 02:36 | 51.88911 | 0.25169 | 351 ft | 2 kts | 15° |
| 2026-05-04 02:36 | 51.88895 | 0.25170 | 352 ft | 2 kts | 335° |
| 2026-05-04 02:37 | 51.88880 | 0.25181 | 352 ft | 2 kts | 323° |
| 2026-05-04 02:37 | 51.88868 | 0.25199 | 343 ft | 2 kts | 314° |
| 2026-05-04 02:37 | 51.88860 | 0.25213 | 355 ft | 1 kts | 312° |
| 2026-05-04 02:37 | 51.88859 | 0.25214 | 355 ft | 0 kts | 312° |
| 2026-05-04 02:41 | 51.88868 | 0.25199 | 343 ft | 7 kts | 312° |
| 2026-05-04 02:41 | 51.88909 | 0.25127 | 343 ft | 9 kts | 313° |
| 2026-05-04 02:41 | 51.88954 | 0.25050 | 343 ft | 9 kts | 315° |
| 2026-05-04 02:41 | 51.88976 | 0.24949 | 347 ft | 10 kts | 285° |
| 2026-05-04 02:42 | 51.89016 | 0.24854 | 351 ft | 11 kts | 312° |
| 2026-05-04 02:42 | 51.89017 | 0.24739 | 350 ft | 12 kts | 231° |
| 2026-05-04 02:42 | 51.88951 | 0.24637 | 342 ft | 14 kts | 223° |
| 2026-05-04 02:42 | 51.88882 | 0.24533 | 346 ft | 13 kts | 223° |
| 2026-05-04 02:43 | 51.88817 | 0.24436 | 348 ft | 13 kts | 222° |
| 2026-05-04 02:43 | 51.88752 | 0.24340 | 343 ft | 12 kts | 223° |
| 2026-05-04 02:43 | 51.88688 | 0.24242 | 342 ft | 13 kts | 223° |
| 2026-05-04 02:43 | 51.88613 | 0.24131 | 344 ft | 16 kts | 221° |
| 2026-05-04 02:44 | 51.88528 | 0.24003 | 340 ft | 17 kts | 223° |
| 2026-05-04 02:44 | 51.88500 | 0.23960 | 340 ft | 0 kts | 223° |
| 2026-05-04 02:44 | 51.88472 | 0.23918 | 335 ft | 13 kts | 223° |
| 2026-05-04 02:44 | 51.88443 | 0.23875 | 336 ft | 9 kts | 222° |
| 2026-05-04 02:45 | 51.88340 | 0.23724 | 336 ft | 24 kts | 222° |
| 2026-05-04 02:45 | 51.88213 | 0.23533 | 337 ft | 25 kts | 221° |
| 2026-05-04 02:45 | 51.88087 | 0.23343 | 335 ft | 24 kts | 223° |
| 2026-05-04 02:45 | 51.87971 | 0.23169 | 334 ft | 21 kts | 223° |
| 2026-05-04 02:46 | 51.87863 | 0.23006 | 336 ft | 21 kts | 223° |
| 2026-05-04 02:46 | 51.87758 | 0.22849 | 334 ft | 20 kts | 224° |
| 2026-05-04 02:46 | 51.87657 | 0.22697 | 335 ft | 20 kts | 221° |
| 2026-05-04 02:46 | 51.87559 | 0.22549 | 332 ft | 19 kts | 222° |
| 2026-05-04 02:47 | 51.87463 | 0.22408 | 333 ft | 18 kts | 223° |
| 2026-05-04 02:47 | 51.87402 | 0.22265 | 330 ft | 14 kts | 267° |
| 2026-05-04 02:47 | 51.87444 | 0.22132 | 330 ft | 14 kts | 312° |
| 2026-05-04 02:47 | 51.87514 | 0.22032 | 329 ft | 13 kts | 345° |
| 2026-05-04 02:48 | 51.87563 | 0.22073 | 327 ft | 0 kts | 42° |
| 2026-05-04 02:48 | 51.87623 | 0.22162 | 330 ft | 43 kts | 42° |
| 2026-05-04 02:48 | 51.88041 | 0.22786 | 334 ft | 119 kts | 43° |
| 2026-05-04 02:49 | 51.88770 | 0.23883 | 577 ft | 156 kts | 41° |
| 2026-05-04 02:49 | 51.89561 | 0.25070 | 1447 ft | 155 kts | 42° |
| 2026-05-04 02:49 | 51.90355 | 0.26297 | 2155 ft | 165 kts | 42° |
| 2026-05-04 02:49 | 51.91279 | 0.27697 | 2476 ft | 200 kts | 42° |
| 2026-05-04 02:50 | 51.92385 | 0.29312 | 2756 ft | 228 kts | 33° |
| 2026-05-04 02:50 | 51.93889 | 0.30189 | 3246 ft | 244 kts | 4° |
| 2026-05-04 02:50 | 51.95599 | 0.29574 | 3764 ft | 259 kts | 326° |
| 2026-05-04 02:50 | 51.96793 | 0.27464 | 4774 ft | 259 kts | 296° |
| 2026-05-04 02:51 | 51.97283 | 0.24651 | 4979 ft | 261 kts | 278° |
| 2026-05-04 02:51 | 51.97509 | 0.21747 | 5069 ft | 265 kts | 276° |
| 2026-05-04 02:51 | 51.97740 | 0.18778 | 5021 ft | 265 kts | 276° |
| 2026-05-04 02:51 | 51.97990 | 0.15823 | 4999 ft | 263 kts | 277° |
| 2026-05-04 02:52 | 51.98272 | 0.12901 | 4997 ft | 262 kts | 278° |
| 2026-05-04 02:52 | 51.98574 | 0.09997 | 4994 ft | 260 kts | 279° |
| 2026-05-04 02:52 | 51.98877 | 0.07111 | 4987 ft | 259 kts | 277° |
| 2026-05-04 02:52 | 51.98782 | 0.04229 | 5003 ft | 256 kts | 257° |
| 2026-05-04 02:53 | 51.98399 | 0.01404 | 4991 ft | 256 kts | 257° |
| 2026-05-04 02:53 | 51.98023 | -0.01429 | 4994 ft | 257 kts | 257° |
| 2026-05-04 02:53 | 51.97654 | -0.04271 | 4986 ft | 258 kts | 258° |
| 2026-05-04 02:53 | 51.97286 | -0.07123 | 4993 ft | 259 kts | 258° |
| 2026-05-04 02:54 | 51.96911 | -0.10013 | 5244 ft | 265 kts | 258° |
| 2026-05-04 02:54 | 51.96533 | -0.12916 | 6253 ft | 266 kts | 258° |
| 2026-05-04 02:54 | 51.96149 | -0.15858 | 7239 ft | 268 kts | 257° |
| 2026-05-04 02:54 | 51.95759 | -0.18841 | 8183 ft | 272 kts | 257° |
| 2026-05-04 02:55 | 51.94962 | -0.24930 | 10045 ft | 280 kts | 257° |
| 2026-05-04 02:55 | 51.94544 | -0.28107 | 10545 ft | 300 kts | 257° |
| 2026-05-04 02:55 | 51.94088 | -0.31566 | 10749 ft | 327 kts | 257° |
| 2026-05-04 02:56 | 51.93593 | -0.35310 | 10969 ft | 351 kts | 257° |
| 2026-05-04 02:56 | 51.93071 | -0.39259 | 11543 ft | 362 kts | 257° |
| 2026-05-04 02:56 | 51.92541 | -0.43268 | 12344 ft | 365 kts | 257° |
| 2026-05-04 02:56 | 51.92005 | -0.47307 | 13212 ft | 368 kts | 257° |
| 2026-05-04 02:57 | 51.91463 | -0.51378 | 14019 ft | 372 kts | 257° |
| 2026-05-04 02:57 | 51.90914 | -0.55491 | 14780 ft | 375 kts | 257° |
| 2026-05-04 02:57 | 51.90366 | -0.59583 | 15549 ft | 378 kts | 256° |
| 2026-05-04 02:57 | 51.89803 | -0.63769 | 16308 ft | 382 kts | 256° |
| 2026-05-04 02:58 | 51.89234 | -0.67992 | 17060 ft | 385 kts | 256° |
| 2026-05-04 02:58 | 51.88658 | -0.72254 | 17806 ft | 389 kts | 256° |
| 2026-05-04 02:58 | 51.88074 | -0.76564 | 18511 ft | 393 kts | 256° |
| 2026-05-04 02:58 | 51.87486 | -0.80894 | 19178 ft | 395 kts | 256° |
| 2026-05-04 02:59 | 51.86892 | -0.85260 | 19868 ft | 397 kts | 256° |
| 2026-05-04 02:59 | 51.86294 | -0.89633 | 20529 ft | 400 kts | 256° |
| 2026-05-04 02:59 | 51.85468 | -0.93929 | 21134 ft | 401 kts | 242° |
| 2026-05-04 02:59 | 51.83883 | -0.97558 | 21766 ft | 402 kts | 225° |
| 2026-05-04 03:00 | 51.81676 | -1.00345 | 22439 ft | 405 kts | 211° |
| 2026-05-04 03:00 | 51.79064 | -1.02094 | 23034 ft | 410 kts | 195° |
| 2026-05-04 03:00 | 51.76232 | -1.02915 | 23628 ft | 414 kts | 191° |
| 2026-05-04 03:00 | 51.73365 | -1.03580 | 24093 ft | 418 kts | 190° |
| 2026-05-04 03:01 | 51.70469 | -1.04243 | 24577 ft | 421 kts | 190° |
| 2026-05-04 03:01 | 51.67568 | -1.04952 | 25073 ft | 423 kts | 191° |
| 2026-05-04 03:01 | 51.64647 | -1.05701 | 25563 ft | 426 kts | 191° |
| 2026-05-04 03:01 | 51.61738 | -1.06387 | 26032 ft | 429 kts | 187° |
| 2026-05-04 03:02 | 51.58751 | -1.06494 | 26480 ft | 434 kts | 180° |
| 2026-05-04 03:02 | 51.55778 | -1.06295 | 26937 ft | 436 kts | 180° |
| 2026-05-04 03:02 | 51.52734 | -1.06067 | 27379 ft | 439 kts | 180° |
| 2026-05-04 03:02 | 51.49671 | -1.05851 | 27796 ft | 441 kts | 180° |
| 2026-05-04 03:03 | 51.46596 | -1.05655 | 28222 ft | 443 kts | 180° |
| 2026-05-04 03:03 | 51.43505 | -1.05474 | 28634 ft | 445 kts | 180° |
| 2026-05-04 03:03 | 51.40416 | -1.05301 | 29175 ft | 444 kts | 180° |
| 2026-05-04 03:03 | 51.37339 | -1.05130 | 29824 ft | 440 kts | 180° |
| 2026-05-04 03:04 | 51.34288 | -1.04960 | 30423 ft | 437 kts | 180° |
| 2026-05-04 03:04 | 51.31255 | -1.04800 | 30880 ft | 436 kts | 180° |
| 2026-05-04 03:04 | 51.28216 | -1.04592 | 31235 ft | 439 kts | 176° |
| 2026-05-04 03:04 | 51.25191 | -1.03794 | 31612 ft | 442 kts | 169° |
| 2026-05-04 03:05 | 51.22288 | -1.02373 | 32037 ft | 444 kts | 161° |
| 2026-05-04 03:05 | 51.19459 | -1.00359 | 32473 ft | 444 kts | 158° |
| 2026-05-04 03:05 | 51.16653 | -0.98273 | 32850 ft | 445 kts | 158° |
| 2026-05-04 03:05 | 51.13848 | -0.96182 | 33214 ft | 445 kts | 158° |
| 2026-05-04 03:06 | 51.11041 | -0.94107 | 33599 ft | 445 kts | 158° |
| 2026-05-04 03:06 | 51.08228 | -0.92048 | 33949 ft | 446 kts | 159° |
| 2026-05-04 03:06 | 51.05376 | -0.89981 | 33948 ft | 450 kts | 159° |
| 2026-05-04 03:07 | 50.99680 | -0.85874 | 33956 ft | 447 kts | 159° |
| 2026-05-04 03:07 | 50.94043 | -0.81822 | 33951 ft | 443 kts | 159° |
| 2026-05-04 03:08 | 50.88462 | -0.77821 | 33957 ft | 442 kts | 159° |
| 2026-05-04 03:08 | 50.82987 | -0.73307 | 33964 ft | 446 kts | 152° |
| 2026-05-04 03:09 | 50.77778 | -0.67949 | 33956 ft | 447 kts | 151° |
| 2026-05-04 03:09 | 50.72569 | -0.62568 | 33954 ft | 447 kts | 151° |
| 2026-05-04 03:10 | 50.67349 | -0.57242 | 33958 ft | 447 kts | 152° |
| 2026-05-04 03:10 | 50.62110 | -0.51941 | 33953 ft | 447 kts | 152° |
| 2026-05-04 03:11 | 50.56899 | -0.46687 | 33960 ft | 446 kts | 152° |
| 2026-05-04 03:11 | 50.51672 | -0.41431 | 33958 ft | 445 kts | 152° |
| 2026-05-04 03:12 | 50.46462 | -0.36203 | 33960 ft | 444 kts | 153° |
| 2026-05-04 03:12 | 50.41265 | -0.31002 | 33962 ft | 442 kts | 153° |
| 2026-05-04 03:13 | 50.36116 | -0.25863 | 33959 ft | 440 kts | 153° |
| 2026-05-04 03:13 | 50.30959 | -0.20729 | 33962 ft | 438 kts | 153° |
| 2026-05-04 03:14 | 50.25815 | -0.15622 | 33964 ft | 437 kts | 153° |
| 2026-05-04 03:14 | 50.20687 | -0.10544 | 33962 ft | 435 kts | 154° |
| 2026-05-04 03:15 | 50.15578 | -0.05496 | 33970 ft | 434 kts | 154° |
| 2026-05-04 03:15 | 50.10451 | -0.00702 | 33964 ft | 427 kts | 160° |
| 2026-05-04 03:16 | 50.04892 | 0.02133 | 33980 ft | 417 kts | 171° |
| 2026-05-04 03:16 | 49.99255 | 0.04266 | 33968 ft | 416 kts | 171° |
| 2026-05-04 03:17 | 49.93626 | 0.06433 | 33973 ft | 416 kts | 171° |
| 2026-05-04 03:17 | 49.88015 | 0.08622 | 33976 ft | 415 kts | 171° |
| 2026-05-04 03:18 | 49.82444 | 0.10799 | 33973 ft | 415 kts | 171° |
| 2026-05-04 03:18 | 49.76847 | 0.12980 | 33969 ft | 414 kts | 171° |
| 2026-05-04 03:19 | 49.71253 | 0.15154 | 33967 ft | 414 kts | 171° |
| 2026-05-04 03:19 | 49.65663 | 0.17344 | 33970 ft | 414 kts | 171° |
| 2026-05-04 03:20 | 49.60085 | 0.19612 | 33968 ft | 415 kts | 171° |
| 2026-05-04 03:20 | 49.54505 | 0.21883 | 33966 ft | 415 kts | 171° |
| 2026-05-04 03:21 | 49.48917 | 0.24143 | 33965 ft | 415 kts | 171° |
| 2026-05-04 03:21 | 49.43358 | 0.26381 | 33965 ft | 416 kts | 171° |
| 2026-05-04 03:22 | 49.37755 | 0.28632 | 33968 ft | 416 kts | 171° |
| 2026-05-04 03:22 | 49.32142 | 0.30882 | 33967 ft | 417 kts | 171° |
| 2026-05-04 03:23 | 49.26526 | 0.33191 | 33973 ft | 418 kts | 170° |
| 2026-05-04 03:23 | 49.20906 | 0.35570 | 33974 ft | 419 kts | 170° |
| 2026-05-04 03:24 | 49.15310 | 0.37931 | 33973 ft | 420 kts | 170° |
| 2026-05-04 03:24 | 49.09674 | 0.40294 | 33974 ft | 420 kts | 170° |
| 2026-05-04 03:25 | 49.04971 | 0.42259 | 33971 ft | 421 kts | 170° |
| 2026-05-04 03:25 | 48.98384 | 0.45004 | 33970 ft | 422 kts | 170° |
| 2026-05-04 03:26 | 48.93639 | 0.46976 | 33969 ft | 422 kts | 170° |
| 2026-05-04 03:26 | 48.87998 | 0.49317 | 33983 ft | 423 kts | 170° |
| 2026-05-04 03:27 | 48.82314 | 0.51671 | 33973 ft | 423 kts | 170° |
| 2026-05-04 03:27 | 48.76622 | 0.53998 | 33967 ft | 423 kts | 170° |
| 2026-05-04 03:28 | 48.70914 | 0.56222 | 33964 ft | 423 kts | 171° |
| 2026-05-04 03:28 | 48.65238 | 0.58424 | 33971 ft | 424 kts | 170° |
| 2026-05-04 03:29 | 48.59532 | 0.60647 | 33983 ft | 424 kts | 170° |
| 2026-05-04 03:29 | 48.53811 | 0.62873 | 33972 ft | 424 kts | 170° |
| 2026-05-04 03:30 | 48.48100 | 0.65139 | 33971 ft | 424 kts | 169° |
| 2026-05-04 03:30 | 48.42398 | 0.67471 | 33967 ft | 424 kts | 169° |
| 2026-05-04 03:31 | 48.36688 | 0.69797 | 33972 ft | 424 kts | 169° |
| 2026-05-04 03:31 | 48.30993 | 0.72102 | 33965 ft | 424 kts | 169° |
| 2026-05-04 03:32 | 48.25292 | 0.74402 | 33965 ft | 424 kts | 169° |
| 2026-05-04 03:32 | 48.19582 | 0.76665 | 33972 ft | 424 kts | 170° |
| 2026-05-04 03:33 | 48.13909 | 0.78891 | 33964 ft | 424 kts | 170° |
| 2026-05-04 03:33 | 48.08211 | 0.81126 | 33968 ft | 424 kts | 169° |
| 2026-05-04 03:34 | 48.02500 | 0.83364 | 33964 ft | 424 kts | 169° |
| 2026-05-04 03:34 | 47.96790 | 0.85597 | 33965 ft | 424 kts | 169° |
| 2026-05-04 03:35 | 47.91089 | 0.87822 | 33964 ft | 424 kts | 169° |
| 2026-05-04 03:35 | 47.85418 | 0.90031 | 33960 ft | 423 kts | 169° |
| 2026-05-04 03:36 | 47.79709 | 0.92246 | 33957 ft | 423 kts | 169° |
| 2026-05-04 03:36 | 47.74009 | 0.94449 | 33954 ft | 423 kts | 169° |
| 2026-05-04 03:37 | 47.68293 | 0.96655 | 33958 ft | 423 kts | 169° |
| 2026-05-04 03:37 | 47.62587 | 0.98853 | 33954 ft | 423 kts | 169° |
| 2026-05-04 03:38 | 47.56887 | 1.01043 | 33953 ft | 422 kts | 169° |
| 2026-05-04 03:38 | 47.51227 | 1.03215 | 33946 ft | 422 kts | 169° |
| 2026-05-04 03:39 | 47.45543 | 1.05389 | 33943 ft | 422 kts | 169° |
| 2026-05-04 03:39 | 47.39781 | 1.06446 | 33945 ft | 414 kts | 184° |
| 2026-05-04 03:40 | 47.34013 | 1.06254 | 33942 ft | 414 kts | 184° |
| 2026-05-04 03:40 | 47.28282 | 1.06080 | 33950 ft | 414 kts | 184° |
| 2026-05-04 03:41 | 47.22516 | 1.05940 | 33950 ft | 414 kts | 183° |
| 2026-05-04 03:41 | 47.16747 | 1.05813 | 33951 ft | 414 kts | 183° |
| 2026-05-04 03:42 | 47.10980 | 1.05686 | 33955 ft | 414 kts | 183° |
| 2026-05-04 03:42 | 47.05215 | 1.05558 | 33959 ft | 414 kts | 183° |
| 2026-05-04 03:43 | 46.99445 | 1.05396 | 33957 ft | 414 kts | 184° |
| 2026-05-04 03:43 | 46.93677 | 1.05134 | 33952 ft | 414 kts | 184° |
| 2026-05-04 03:44 | 46.87920 | 1.04868 | 33960 ft | 414 kts | 184° |
| 2026-05-04 03:44 | 46.82158 | 1.04613 | 33960 ft | 414 kts | 184° |
| 2026-05-04 03:45 | 46.76389 | 1.04364 | 33957 ft | 414 kts | 184° |
| 2026-05-04 03:45 | 46.70623 | 1.04116 | 33961 ft | 414 kts | 184° |
| 2026-05-04 03:46 | 46.64900 | 1.03870 | 33955 ft | 414 kts | 184° |
| 2026-05-04 03:46 | 46.59137 | 1.03623 | 33959 ft | 414 kts | 184° |
| 2026-05-04 03:47 | 46.53389 | 1.03394 | 33953 ft | 414 kts | 182° |
| 2026-05-04 03:47 | 46.47652 | 1.04514 | 33962 ft | 418 kts | 171° |
| 2026-05-04 03:48 | 46.41982 | 1.06466 | 33951 ft | 418 kts | 171° |
| 2026-05-04 03:48 | 46.36347 | 1.08388 | 33957 ft | 418 kts | 171° |
| 2026-05-04 03:49 | 46.30685 | 1.10288 | 33953 ft | 417 kts | 171° |
| 2026-05-04 03:49 | 46.25026 | 1.12172 | 33955 ft | 417 kts | 171° |
| 2026-05-04 03:50 | 46.19362 | 1.14051 | 33954 ft | 417 kts | 171° |
| 2026-05-04 03:50 | 46.13702 | 1.15925 | 33962 ft | 417 kts | 171° |
| 2026-05-04 03:51 | 46.08036 | 1.17797 | 33959 ft | 418 kts | 171° |
| 2026-05-04 03:51 | 46.02369 | 1.19667 | 33966 ft | 418 kts | 171° |
| 2026-05-04 03:52 | 45.96738 | 1.21520 | 33967 ft | 418 kts | 171° |
| 2026-05-04 03:52 | 45.91058 | 1.23386 | 33964 ft | 418 kts | 171° |
| 2026-05-04 03:53 | 45.85380 | 1.25247 | 33970 ft | 419 kts | 171° |
| 2026-05-04 03:53 | 45.79695 | 1.27107 | 33967 ft | 419 kts | 171° |
| 2026-05-04 03:54 | 45.73988 | 1.28969 | 33970 ft | 420 kts | 171° |
| 2026-05-04 03:54 | 45.68302 | 1.30822 | 33962 ft | 421 kts | 171° |
| 2026-05-04 03:55 | 45.62588 | 1.32679 | 33961 ft | 421 kts | 171° |
| 2026-05-04 03:55 | 45.56872 | 1.34534 | 33955 ft | 421 kts | 171° |
| 2026-05-04 03:56 | 45.51150 | 1.36387 | 33960 ft | 421 kts | 171° |
| 2026-05-04 03:56 | 45.45453 | 1.38227 | 33963 ft | 422 kts | 171° |
| 2026-05-04 03:57 | 45.39714 | 1.40076 | 33964 ft | 423 kts | 171° |
| 2026-05-04 03:57 | 45.33969 | 1.41924 | 33947 ft | 423 kts | 171° |
| 2026-05-04 03:58 | 45.25392 | 1.44678 | 33964 ft | 423 kts | 171° |
| 2026-05-04 03:58 | 45.19647 | 1.46518 | 33966 ft | 422 kts | 171° |
| 2026-05-04 03:59 | 45.13906 | 1.48352 | 33964 ft | 423 kts | 171° |
| 2026-05-04 03:59 | 45.08170 | 1.50182 | 33963 ft | 423 kts | 171° |
| 2026-05-04 04:00 | 45.02419 | 1.52012 | 33970 ft | 424 kts | 171° |
| 2026-05-04 04:00 | 44.96692 | 1.53830 | 33958 ft | 425 kts | 172° |
| 2026-05-04 04:01 | 44.90921 | 1.55660 | 33965 ft | 425 kts | 172° |
| 2026-05-04 04:01 | 44.85138 | 1.57489 | 33968 ft | 426 kts | 172° |
| 2026-05-04 04:02 | 44.79343 | 1.59318 | 33959 ft | 427 kts | 172° |
| 2026-05-04 04:02 | 44.73537 | 1.61146 | 33952 ft | 428 kts | 172° |
| 2026-05-04 04:03 | 44.67724 | 1.62974 | 33959 ft | 428 kts | 172° |
| 2026-05-04 04:03 | 44.61903 | 1.64800 | 33948 ft | 429 kts | 172° |
| 2026-05-04 04:04 | 44.56116 | 1.66612 | 33951 ft | 429 kts | 172° |
| 2026-05-04 04:04 | 44.50289 | 1.68433 | 33947 ft | 429 kts | 172° |
| 2026-05-04 04:05 | 44.44459 | 1.70251 | 33962 ft | 429 kts | 172° |
| 2026-05-04 04:05 | 44.38622 | 1.72067 | 33949 ft | 429 kts | 172° |
| 2026-05-04 04:06 | 44.32783 | 1.73881 | 33948 ft | 429 kts | 172° |
| 2026-05-04 04:06 | 44.26934 | 1.75562 | 33947 ft | 428 kts | 175° |
| 2026-05-04 04:07 | 44.21102 | 1.76825 | 33944 ft | 427 kts | 176° |
| 2026-05-04 04:07 | 44.15223 | 1.78061 | 33943 ft | 427 kts | 176° |
| 2026-05-04 04:08 | 44.09345 | 1.79339 | 33940 ft | 428 kts | 176° |
| 2026-05-04 04:08 | 44.03464 | 1.80632 | 33943 ft | 428 kts | 176° |
| 2026-05-04 04:09 | 43.97580 | 1.81922 | 33940 ft | 428 kts | 176° |
| 2026-05-04 04:09 | 43.91681 | 1.82849 | 33940 ft | 425 kts | 180° |
| 2026-05-04 04:10 | 43.85777 | 1.83388 | 33935 ft | 425 kts | 181° |
| 2026-05-04 04:10 | 43.79862 | 1.83924 | 33933 ft | 426 kts | 181° |
| 2026-05-04 04:11 | 43.73985 | 1.84482 | 33932 ft | 426 kts | 181° |
| 2026-05-04 04:11 | 43.68060 | 1.85056 | 33924 ft | 427 kts | 181° |
| 2026-05-04 04:12 | 43.62124 | 1.85631 | 33926 ft | 428 kts | 181° |
| 2026-05-04 04:12 | 43.56190 | 1.86205 | 33928 ft | 428 kts | 181° |
| 2026-05-04 04:13 | 43.50233 | 1.86778 | 33928 ft | 429 kts | 181° |
| 2026-05-04 04:13 | 43.44311 | 1.87348 | 33928 ft | 430 kts | 181° |
| 2026-05-04 04:14 | 43.38340 | 1.87922 | 33930 ft | 430 kts | 181° |
| 2026-05-04 04:14 | 43.32366 | 1.88494 | 33932 ft | 431 kts | 181° |
| 2026-05-04 04:15 | 43.27351 | 1.88977 | 33934 ft | 431 kts | 181° |
| 2026-05-04 04:15 | 43.21393 | 1.89550 | 33931 ft | 432 kts | 181° |
| 2026-05-04 04:16 | 43.15395 | 1.90125 | 33932 ft | 432 kts | 181° |
| 2026-05-04 04:16 | 43.09388 | 1.90701 | 33934 ft | 432 kts | 181° |
| 2026-05-04 04:17 | 43.03388 | 1.91274 | 33933 ft | 432 kts | 181° |
| 2026-05-04 04:17 | 42.97385 | 1.91846 | 33930 ft | 432 kts | 181° |
| 2026-05-04 04:18 | 42.91378 | 1.92419 | 33935 ft | 432 kts | 181° |
| 2026-05-04 04:18 | 42.85415 | 1.92985 | 33936 ft | 432 kts | 181° |
| 2026-05-04 04:19 | 42.79418 | 1.93554 | 33936 ft | 431 kts | 181° |
| 2026-05-04 04:19 | 42.73435 | 1.94121 | 33933 ft | 431 kts | 181° |
| 2026-05-04 04:20 | 42.67517 | 1.95821 | 33958 ft | 445 kts | 164° |
| 2026-05-04 04:20 | 42.62147 | 2.00226 | 33948 ft | 461 kts | 147° |
| 2026-05-04 04:21 | 42.57248 | 2.05868 | 33949 ft | 461 kts | 146° |
| 2026-05-04 04:21 | 42.52358 | 2.11472 | 33958 ft | 460 kts | 147° |
| 2026-05-04 04:22 | 42.47414 | 2.17011 | 33952 ft | 461 kts | 147° |
| 2026-05-04 04:22 | 42.42482 | 2.22508 | 33962 ft | 462 kts | 147° |
| 2026-05-04 04:23 | 42.37512 | 2.28055 | 33967 ft | 463 kts | 147° |
| 2026-05-04 04:23 | 42.32532 | 2.33611 | 33957 ft | 465 kts | 147° |
| 2026-05-04 04:24 | 42.27522 | 2.39189 | 33971 ft | 467 kts | 147° |
| 2026-05-04 04:24 | 42.22530 | 2.44736 | 33978 ft | 468 kts | 147° |
| 2026-05-04 04:25 | 42.17494 | 2.50319 | 33972 ft | 469 kts | 147° |
| 2026-05-04 04:25 | 42.12433 | 2.55916 | 33969 ft | 470 kts | 147° |
| 2026-05-04 04:26 | 42.07361 | 2.61515 | 33968 ft | 471 kts | 147° |
| 2026-05-04 04:26 | 42.02284 | 2.67108 | 33968 ft | 472 kts | 147° |
| 2026-05-04 04:27 | 41.97227 | 2.72669 | 33966 ft | 472 kts | 147° |
| 2026-05-04 04:27 | 41.92113 | 2.78224 | 33954 ft | 471 kts | 148° |
| 2026-05-04 04:28 | 41.86820 | 2.83363 | 33963 ft | 468 kts | 151° |
| 2026-05-04 04:28 | 41.81468 | 2.88378 | 33964 ft | 468 kts | 151° |
| 2026-05-04 04:29 | 41.76142 | 2.93414 | 33970 ft | 469 kts | 150° |
| 2026-05-04 04:29 | 41.70847 | 2.98455 | 33962 ft | 469 kts | 150° |
| 2026-05-04 04:30 | 41.65525 | 3.03519 | 33969 ft | 470 kts | 150° |
| 2026-05-04 04:30 | 41.60194 | 3.08580 | 33971 ft | 470 kts | 150° |
| 2026-05-04 04:31 | 41.54856 | 3.13636 | 33973 ft | 470 kts | 150° |
| 2026-05-04 04:31 | 41.49510 | 3.18682 | 33971 ft | 470 kts | 151° |
| 2026-05-04 04:32 | 41.44049 | 3.23316 | 33971 ft | 467 kts | 155° |
| 2026-05-04 04:32 | 41.38466 | 3.27784 | 33975 ft | 467 kts | 155° |
| 2026-05-04 04:33 | 41.32900 | 3.32283 | 33976 ft | 468 kts | 154° |
| 2026-05-04 04:33 | 41.27351 | 3.36809 | 33978 ft | 468 kts | 154° |
| 2026-05-04 04:34 | 41.21789 | 3.41344 | 33980 ft | 469 kts | 154° |
| 2026-05-04 04:34 | 41.19000 | 3.43610 | 33578 ft | 473 kts | 154° |
| 2026-05-04 04:34 | 41.16176 | 3.45908 | 32727 ft | 473 kts | 154° |
| 2026-05-04 04:35 | 41.13414 | 3.48173 | 31790 ft | 473 kts | 154° |
| 2026-05-04 04:35 | 41.10618 | 3.50467 | 30806 ft | 473 kts | 154° |
| 2026-05-04 04:35 | 41.07810 | 3.52765 | 29713 ft | 474 kts | 154° |
| 2026-05-04 04:35 | 41.04989 | 3.55065 | 28451 ft | 476 kts | 154° |
| 2026-05-04 04:36 | 41.02163 | 3.57356 | 27226 ft | 476 kts | 154° |
| 2026-05-04 04:36 | 40.99330 | 3.59646 | 25984 ft | 477 kts | 154° |
| 2026-05-04 04:36 | 40.96513 | 3.61920 | 25082 ft | 471 kts | 153° |
| 2026-05-04 04:36 | 40.93736 | 3.64164 | 24182 ft | 465 kts | 153° |
| 2026-05-04 04:37 | 40.85589 | 3.70734 | 21408 ft | 447 kts | 153° |
| 2026-05-04 04:37 | 40.82990 | 3.72826 | 20625 ft | 440 kts | 153° |
| 2026-05-04 04:38 | 40.80389 | 3.74917 | 19767 ft | 435 kts | 153° |
| 2026-05-04 04:38 | 40.77821 | 3.76979 | 18945 ft | 429 kts | 153° |
| 2026-05-04 04:38 | 40.75284 | 3.79014 | 18090 ft | 425 kts | 153° |
| 2026-05-04 04:38 | 40.72765 | 3.81031 | 17186 ft | 420 kts | 153° |
| 2026-05-04 04:39 | 40.70285 | 3.83017 | 16332 ft | 414 kts | 152° |
| 2026-05-04 04:39 | 40.67845 | 3.84970 | 15566 ft | 408 kts | 152° |
| 2026-05-04 04:39 | 40.65434 | 3.86897 | 14795 ft | 403 kts | 152° |
| 2026-05-04 04:39 | 40.63048 | 3.88802 | 14029 ft | 399 kts | 152° |
| 2026-05-04 04:40 | 40.60683 | 3.90690 | 13189 ft | 395 kts | 151° |
| 2026-05-04 04:40 | 40.58346 | 3.92553 | 12381 ft | 390 kts | 151° |
| 2026-05-04 04:40 | 40.56040 | 3.94393 | 11605 ft | 386 kts | 151° |
| 2026-05-04 04:40 | 40.53759 | 3.96209 | 10914 ft | 380 kts | 151° |
| 2026-05-04 04:41 | 40.51563 | 3.97959 | 10775 ft | 359 kts | 151° |
| 2026-05-04 04:41 | 40.49427 | 3.99477 | 10588 ft | 339 kts | 162° |
| 2026-05-04 04:41 | 40.47224 | 4.00325 | 10456 ft | 321 kts | 167° |
| 2026-05-04 04:41 | 40.45111 | 4.01047 | 10312 ft | 308 kts | 168° |
| 2026-05-04 04:42 | 40.43079 | 4.01735 | 10189 ft | 295 kts | 168° |
| 2026-05-04 04:42 | 40.41129 | 4.02401 | 10062 ft | 284 kts | 168° |
| 2026-05-04 04:42 | 40.39251 | 4.03050 | 9851 ft | 277 kts | 168° |
| 2026-05-04 04:42 | 40.37423 | 4.03686 | 9515 ft | 274 kts | 168° |
| 2026-05-04 04:43 | 40.35592 | 4.04326 | 9203 ft | 270 kts | 167° |
| 2026-05-04 04:43 | 40.33786 | 4.04961 | 8887 ft | 268 kts | 167° |
| 2026-05-04 04:43 | 40.31997 | 4.05591 | 8572 ft | 265 kts | 167° |
| 2026-05-04 04:43 | 40.30224 | 4.06216 | 8266 ft | 263 kts | 167° |
| 2026-05-04 04:44 | 40.28463 | 4.06837 | 7962 ft | 261 kts | 167° |
| 2026-05-04 04:44 | 40.26720 | 4.07452 | 7649 ft | 259 kts | 167° |
| 2026-05-04 04:44 | 40.24987 | 4.08064 | 7349 ft | 257 kts | 167° |
| 2026-05-04 04:44 | 40.23268 | 4.08670 | 7044 ft | 255 kts | 167° |
| 2026-05-04 04:45 | 40.21558 | 4.09273 | 6752 ft | 254 kts | 167° |
| 2026-05-04 04:45 | 40.19855 | 4.09873 | 6452 ft | 253 kts | 167° |
| 2026-05-04 04:45 | 40.18158 | 4.10471 | 6125 ft | 252 kts | 167° |
| 2026-05-04 04:47 | 40.08593 | 4.14891 | 4356 ft | 246 kts | 128° |
| 2026-05-04 04:47 | 40.07915 | 4.16910 | 4252 ft | 242 kts | 104° |
| 2026-05-04 04:47 | 40.07868 | 4.19091 | 4034 ft | 242 kts | 87° |
| 2026-05-04 04:47 | 40.08022 | 4.21266 | 3890 ft | 234 kts | 90° |
| 2026-05-04 04:48 | 40.07999 | 4.23327 | 3808 ft | 218 kts | 106° |
| 2026-05-04 04:49 | 40.03448 | 4.25280 | 2608 ft | 179 kts | 181° |
| 2026-05-04 04:49 | 40.02192 | 4.25124 | 2556 ft | 183 kts | 185° |
| 2026-05-04 04:49 | 40.00923 | 4.24889 | 2511 ft | 183 kts | 185° |
| 2026-05-04 04:49 | 39.99749 | 4.24647 | 2488 ft | 163 kts | 185° |
| 2026-05-04 04:50 | 39.98671 | 4.24425 | 2472 ft | 153 kts | 185° |
| 2026-05-04 04:50 | 39.97615 | 4.24208 | 2323 ft | 154 kts | 186° |
| 2026-05-04 04:50 | 39.96557 | 4.23990 | 2121 ft | 152 kts | 186° |
| 2026-05-04 04:50 | 39.95582 | 4.23787 | 1929 ft | 134 kts | 185° |
| 2026-05-04 04:51 | 39.94725 | 4.23609 | 1763 ft | 118 kts | 182° |
| 2026-05-04 04:51 | 39.93905 | 4.23443 | 1608 ft | 121 kts | 182° |
| 2026-05-04 04:51 | 39.93090 | 4.23274 | 1440 ft | 116 kts | 182° |
| 2026-05-04 04:51 | 39.92293 | 4.23109 | 1295 ft | 116 kts | 183° |
| 2026-05-04 04:52 | 39.91507 | 4.22945 | 1130 ft | 112 kts | 181° |
| 2026-05-04 04:52 | 39.90719 | 4.22794 | 1017 ft | 124 kts | 182° |
| 2026-05-04 04:52 | 39.89812 | 4.22599 | 856 ft | 137 kts | 185° |
| 2026-05-04 04:52 | 39.88895 | 4.22407 | 654 ft | 129 kts | 187° |
| 2026-05-04 04:53 | 39.88026 | 4.22223 | 508 ft | 127 kts | 188° |
| 2026-05-04 04:53 | 39.87143 | 4.22054 | 342 ft | 127 kts | 188° |
| 2026-05-04 04:53 | 39.86347 | 4.21886 | 296 ft | 95 kts | 189° |
| 2026-05-04 04:53 | 39.85900 | 4.21790 | 298 ft | 44 kts | 188° |
| 2026-05-04 04:54 | 39.85616 | 4.21760 | 295 ft | 39 kts | 172° |
| 2026-05-04 04:54 | 39.85444 | 4.21829 | 291 ft | 0 kts | 156° |
| 2026-05-04 04:54 | 39.85440 | 4.21831 | 291 ft | 2 kts | 157° |
| 2026-05-04 04:55 | 39.85410 | 4.21852 | 290 ft | 7 kts | 139° |
| 2026-05-04 04:55 | 39.85406 | 4.21913 | 293 ft | 7 kts | 59° |
| 2026-05-04 04:55 | 39.85458 | 4.21939 | 290 ft | 10 kts | 9° |
| 2026-05-04 04:55 | 39.85537 | 4.21956 | 293 ft | 13 kts | 9° |
| 2026-05-04 04:56 | 39.85637 | 4.21976 | 292 ft | 16 kts | 9° |
| 2026-05-04 04:56 | 39.85759 | 4.22001 | 293 ft | 19 kts | 9° |
| 2026-05-04 04:56 | 39.85892 | 4.22029 | 295 ft | 20 kts | 9° |
| 2026-05-04 04:56 | 39.86033 | 4.22057 | 296 ft | 21 kts | 9° |
| 2026-05-04 04:57 | 39.86178 | 4.22087 | 301 ft | 21 kts | 9° |
| 2026-05-04 04:57 | 39.86323 | 4.22116 | 299 ft | 21 kts | 8° |
| 2026-05-04 04:57 | 39.86463 | 4.22146 | 303 ft | 20 kts | 8° |
| 2026-05-04 04:57 | 39.86543 | 4.22201 | 301 ft | 13 kts | 81° |
| 2026-05-04 04:58 | 39.86538 | 4.22312 | 301 ft | 10 kts | 82° |
| 2026-05-04 04:58 | 39.86535 | 4.22379 | 301 ft | 7 kts | 99° |
| 2026-05-04 04:58 | 39.86530 | 4.22422 | 301 ft | 3 kts | 98° |
| 2026-05-04 04:58 | 39.86529 | 4.22427 | 301 ft | 0 kts | 98° |